Time;durP1;ratioP1;P1;durP2;ratioP2;P2;SDS_P1;SDS_P2;PMS_P1;PMS_P2;Temp;Humidity;BMP_temperature;BMP_pressure;BME280_temperature;BME280_humidity;BME280_pressure;Samples;Min_cycle;Max_cycle;Signal;HPM_P1;HPM_P2
2022/09/09 00:00:22;;;;;;;6.68;3.60;;;14.40;99.90;;;;;;5074226;28;20106;-67
2022/09/09 00:03:04;;;;;;;5.30;3.10;;;14.50;99.90;;;;;;5074279;28;20049;-67
2022/09/09 00:05:49;;;;;;;4.65;3.42;;;14.40;99.90;;;;;;5073497;28;20458;-67
2022/09/09 00:08:49;;;;;;;6.20;3.33;;;14.40;99.90;;;;;;5074949;28;20049;-67
2022/09/09 00:11:40;;;;;;;4.07;2.75;;;14.50;99.90;;;;;;5052465;28;20078;-67
2022/09/09 00:14:30;;;;;;;6.40;3.50;;;14.40;99.90;;;;;;5074308;28;20048;-68
2022/09/09 00:17:04;;;;;;;8.77;3.10;;;14.40;99.90;;;;;;5074563;28;20053;-67
2022/09/09 00:19:35;;;;;;;5.18;3.00;;;14.40;99.90;;;;;;5073776;28;20049;-68
2022/09/09 00:22:26;;;;;;;4.68;2.85;;;14.40;99.90;;;;;;5072916;28;20052;-68
2022/09/09 00:24:54;;;;;;;4.40;2.50;;;14.30;99.90;;;;;;5074120;28;20050;-67
2022/09/09 00:27:37;;;;;;;4.43;2.65;;;14.20;99.90;;;;;;5072485;28;20040;-67
2022/09/09 00:30:24;;;;;;;3.92;2.72;;;14.20;99.90;;;;;;5074052;28;20446;-67
2022/09/09 00:32:57;;;;;;;4.40;2.88;;;14.10;99.90;;;;;;5073752;28;20061;-67
2022/09/09 00:35:47;;;;;;;6.13;3.15;;;14.10;99.90;;;;;;5074270;28;20048;-67
2022/09/09 00:38:18;;;;;;;7.68;3.60;;;14.10;99.90;;;;;;5074453;28;20055;-68
2022/09/09 00:40:55;;;;;;;4.85;3.30;;;14.10;99.90;;;;;;5072319;28;20044;-68
2022/09/09 00:43:29;;;;;;;6.20;3.00;;;14.00;99.90;;;;;;5073625;28;20048;-68
2022/09/09 00:46:18;;;;;;;4.95;3.10;;;14.00;99.90;;;;;;5074031;28;20097;-68
2022/09/09 00:49:15;;;;;;;6.47;2.88;;;14.00;99.90;;;;;;5073295;28;20056;-68
2022/09/09 00:51:56;;;;;;;;;;;13.90;99.90;;;;;;5074449;28;20040;-68
2022/09/09 00:54:48;;;;;;;4.63;3.00;;;13.90;99.90;;;;;;5073550;28;19970;-67
2022/09/09 00:57:14;;;;;;;3.35;2.80;;;13.90;99.90;;;;;;5073898;28;20052;-68
2022/09/09 00:59:57;;;;;;;6.63;3.13;;;13.90;99.90;;;;;;5073332;28;20041;-67
2022/09/09 01:03:07;;;;;;;5.40;3.22;;;13.90;99.90;;;;;;5073209;28;20057;-68
2022/09/09 01:05:33;;;;;;;4.78;2.85;;;14.00;99.90;;;;;;5062681;28;20059;-68
2022/09/09 01:08:02;;;;;;;4.55;3.05;;;14.00;99.90;;;;;;5073230;28;20048;-68
2022/09/09 01:10:53;;;;;;;5.22;2.67;;;14.10;99.90;;;;;;5073702;28;20048;-68
2022/09/09 01:13:33;;;;;;;4.97;3.00;;;14.20;99.90;;;;;;5072314;28;20077;-68
2022/09/09 01:16:02;;;;;;;4.22;3.08;;;14.20;99.90;;;;;;5072495;28;20052;-68
2022/09/09 01:18:39;;;;;;;5.25;3.00;;;14.30;99.90;;;;;;5073201;28;20040;-68
2022/09/09 01:21:40;;;;;;;5.60;2.78;;;14.40;99.90;;;;;;5073093;28;20078;-69
2022/09/09 01:24:31;;;;;;;5.38;3.00;;;14.50;99.90;;;;;;5073142;28;20070;-68
2022/09/09 01:27:00;;;;;;;4.90;2.17;;;14.50;99.90;;;;;;5073117;28;20055;-68
2022/09/09 01:29:26;;;;;;;3.88;2.30;;;14.50;99.90;;;;;;5073052;28;20044;-68
2022/09/09 01:31:55;;;;;;;3.85;2.70;;;14.60;99.90;;;;;;5073535;28;20070;-69
2022/09/09 01:34:23;;;;;;;6.65;2.88;;;14.60;99.90;;;;;;5074550;28;20044;-68
2022/09/09 01:36:57;;;;;;;3.67;2.38;;;14.60;99.90;;;;;;5077105;28;20044;-69
2022/09/09 01:39:23;;;;;;;4.43;2.90;;;14.60;99.90;;;;;;5077312;28;20063;-68
2022/09/09 01:41:49;;;;;;;5.07;2.67;;;14.60;99.90;;;;;;5076879;28;20458;-68
2022/09/09 01:44:15;;;;;;;4.32;2.47;;;14.50;99.90;;;;;;5076674;28;20052;-68
2022/09/09 01:46:40;;;;;;;4.03;2.80;;;14.50;99.90;;;;;;5077000;28;20450;-69
2022/09/09 01:49:08;;;;;;;4.80;2.78;;;14.40;99.90;;;;;;5077730;28;20141;-67
2022/09/09 01:51:36;;;;;;;5.35;2.60;;;14.40;99.90;;;;;;5077872;28;20400;-68
2022/09/09 01:54:02;;;;;;;3.33;2.50;;;14.40;99.90;;;;;;5077025;28;20049;-68
2022/09/09 01:56:43;;;;;;;5.75;3.10;;;14.30;99.90;;;;;;5077068;28;20048;-68
2022/09/09 01:59:38;;;;;;;5.22;3.00;;;14.30;99.90;;;;;;5076696;28;20083;-68
2022/09/09 02:02:35;;;;;;;4.63;3.40;;;14.30;99.90;;;;;;5076574;28;20060;-68
2022/09/09 02:05:24;;;;;;;4.20;2.95;;;14.30;99.90;;;;;;5076955;28;20463;-67
2022/09/09 02:07:53;;;;;;;5.25;3.30;;;14.30;99.90;;;;;;5055840;28;20052;-68
2022/09/09 02:10:34;;;;;;;6.85;3.60;;;14.20;99.90;;;;;;5075390;28;20132;-68
2022/09/09 02:13:12;;;;;;;5.22;3.53;;;14.20;99.90;;;;;;5076353;28;20508;-68
2022/09/09 02:15:50;;;;;;;5.13;3.65;;;14.30;99.90;;;;;;5076279;28;20044;-68
2022/09/09 02:18:23;;;;;;;6.88;3.30;;;14.20;99.90;;;;;;5075967;28;20048;-68
2022/09/09 02:20:50;;;;;;;5.38;3.65;;;14.20;99.90;;;;;;5076202;28;20052;-68
2022/09/09 02:23:17;;;;;;;4.90;3.60;;;14.10;99.90;;;;;;5075500;28;20080;-68
2022/09/09 02:25:44;;;;;;;5.20;4.20;;;14.10;99.90;;;;;;5075144;28;20048;-68
2022/09/09 02:28:12;;;;;;;5.63;3.33;;;14.10;99.90;;;;;;5076829;28;20180;-68
2022/09/09 02:30:40;;;;;;;6.43;3.80;;;14.10;99.90;;;;;;5076020;28;20052;-68
2022/09/09 02:33:07;;;;;;;4.88;3.83;;;14.10;99.90;;;;;;5075373;28;20084;-68
2022/09/09 02:35:37;;;;;;;6.05;3.90;;;14.10;99.90;;;;;;5075954;28;20484;-68
2022/09/09 02:38:07;;;;;;;5.88;3.85;;;14.10;99.90;;;;;;5076658;28;20412;-68
2022/09/09 02:40:33;;;;;;;5.72;3.70;;;14.10;99.90;;;;;;5075875;28;20110;-68
2022/09/09 02:43:00;;;;;;;5.25;3.50;;;14.10;99.90;;;;;;5076121;28;20056;-68
2022/09/09 02:45:31;;;;;;;5.57;3.80;;;14.10;99.90;;;;;;5075714;28;20121;-69
2022/09/09 02:48:09;;;;;;;8.18;3.88;;;14.10;99.90;;;;;;5075465;28;20053;-68
2022/09/09 02:50:59;;;;;;;6.70;3.92;;;14.20;99.90;;;;;;5075986;28;20386;-68
2022/09/09 02:53:39;;;;;;;6.20;3.60;;;14.20;99.90;;;;;;5076457;28;20044;-68
2022/09/09 02:56:11;;;;;;;5.85;3.47;;;14.20;99.90;;;;;;5075551;28;20057;-68
2022/09/09 02:58:36;;;;;;;7.05;3.95;;;14.20;99.90;;;;;;5076259;28;20397;-68
2022/09/09 03:01:02;;;;;;;5.88;3.92;;;14.20;99.90;;;;;;5075231;28;20135;-68
2022/09/09 03:03:28;;;;;;;5.18;3.85;;;14.20;99.90;;;;;;5075951;28;20044;-68
2022/09/09 03:05:54;;;;;;;5.10;3.90;;;14.20;99.90;;;;;;5074683;28;20388;-68
2022/09/09 03:08:20;;;;;;;6.07;4.00;;;14.20;99.90;;;;;;5075369;28;20048;-68
2022/09/09 03:10:46;;;;;;;5.68;3.60;;;14.20;99.90;;;;;;5075556;28;20124;-68
2022/09/09 03:13:15;;;;;;;5.80;3.42;;;14.20;99.90;;;;;;5075243;28;20044;-68
2022/09/09 03:15:41;;;;;;;5.78;3.83;;;14.20;99.90;;;;;;5075221;28;20055;-68
2022/09/09 03:18:07;;;;;;;5.13;3.45;;;14.20;99.90;;;;;;5075047;28;20052;-68
2022/09/09 03:20:33;;;;;;;4.22;3.08;;;14.20;99.90;;;;;;5074951;28;20059;-69
2022/09/09 03:23:00;;;;;;;4.35;2.95;;;14.20;99.90;;;;;;5074463;28;20102;-68
2022/09/09 03:25:26;;;;;;;4.18;2.60;;;14.20;99.90;;;;;;5075460;28;20040;-68
2022/09/09 03:27:54;;;;;;;4.13;2.92;;;14.20;99.90;;;;;;5073728;28;20399;-68
2022/09/09 03:30:25;;;;;;;4.25;2.92;;;14.10;99.90;;;;;;5074903;28;20045;-68
2022/09/09 03:32:51;;;;;;;4.55;3.08;;;14.10;99.90;;;;;;5074898;28;20058;-67
2022/09/09 03:35:16;;;;;;;4.57;2.40;;;14.10;99.90;;;;;;5074808;28;20474;-67
2022/09/09 03:37:42;;;;;;;3.45;2.05;;;14.10;99.90;;;;;;5074767;28;20055;-67
2022/09/09 03:40:09;;;;;;;2.92;1.63;;;14.10;99.90;;;;;;5073751;28;20040;-67
2022/09/09 03:42:36;;;;;;;3.33;1.30;;;14.10;99.90;;;;;;5075012;28;20040;-68
2022/09/09 03:45:04;;;;;;;7.78;1.50;;;14.10;99.90;;;;;;5073913;28;20057;-67
2022/09/09 03:47:30;;;;;;;2.42;1.10;;;14.20;99.90;;;;;;5075081;28;20131;-68
2022/09/09 03:49:56;;;;;;;3.00;0.98;;;14.10;99.90;;;;;;5074517;28;20087;-68
2022/09/09 03:52:24;;;;;;;2.35;1.00;;;14.20;99.90;;;;;;5074508;28;20474;-67
2022/09/09 03:54:51;;;;;;;2.08;0.95;;;14.10;99.90;;;;;;5073462;28;20127;-68
2022/09/09 03:57:17;;;;;;;1.92;1.00;;;14.10;99.90;;;;;;5074980;28;20045;-69
2022/09/09 03:59:43;;;;;;;3.47;1.65;;;14.10;99.90;;;;;;5074846;28;20476;-68
2022/09/09 04:02:09;;;;;;;3.10;1.65;;;14.10;99.90;;;;;;5074533;28;20188;-68
2022/09/09 04:04:35;;;;;;;3.15;1.90;;;14.10;99.90;;;;;;5074215;28;20052;-67
2022/09/09 04:07:01;;;;;;;4.03;2.10;;;14.10;99.90;;;;;;5073016;28;20128;-67
2022/09/09 04:09:26;;;;;;;4.57;2.50;;;14.10;99.90;;;;;;5074359;28;20500;-67
2022/09/09 04:11:53;;;;;;;4.15;2.70;;;14.10;99.90;;;;;;5074386;28;20047;-68
2022/09/09 04:14:19;;;;;;;4.20;2.92;;;14.10;99.90;;;;;;5074064;28;20511;-67
2022/09/09 04:16:45;;;;;;;4.90;3.42;;;14.10;99.90;;;;;;5073760;28;20464;-68
2022/09/09 04:19:13;;;;;;;5.60;3.83;;;14.10;99.90;;;;;;5073602;28;20497;-67
2022/09/09 04:21:42;;;;;;;5.80;3.40;;;14.20;99.90;;;;;;5074130;28;20043;-67
2022/09/09 04:24:08;;;;;;;5.30;3.70;;;14.20;99.90;;;;;;5074666;28;20067;-68
2022/09/09 04:26:36;;;;;;;5.82;3.75;;;14.20;99.90;;;;;;5073249;28;20048;-68
2022/09/09 04:29:02;;;;;;;4.78;3.65;;;14.20;99.90;;;;;;5074351;28;20149;-68
2022/09/09 04:31:29;;;;;;;7.25;3.50;;;14.20;99.90;;;;;;5073723;28;20051;-67
2022/09/09 04:33:54;;;;;;;5.93;3.63;;;14.20;99.90;;;;;;5073505;28;20052;-67
2022/09/09 04:36:21;;;;;;;5.07;3.90;;;14.20;99.90;;;;;;5074179;28;20384;-68
2022/09/09 04:38:48;;;;;;;4.88;3.85;;;14.20;99.90;;;;;;5073608;28;20048;-67
2022/09/09 04:41:14;;;;;;;4.65;3.47;;;14.20;99.90;;;;;;5074021;28;20041;-68
2022/09/09 04:43:40;;;;;;;4.65;3.72;;;14.20;99.90;;;;;;5074058;28;20053;-68
2022/09/09 04:46:06;;;;;;;5.40;3.80;;;14.20;99.90;;;;;;5074335;28;20051;-68
2022/09/09 04:48:31;;;;;;;5.30;3.67;;;14.20;99.90;;;;;;5073496;28;20087;-68
2022/09/09 04:50:59;;;;;;;6.55;3.85;;;14.20;99.90;;;;;;5073434;28;20044;-68
2022/09/09 04:53:25;;;;;;;6.55;3.70;;;14.20;99.90;;;;;;5072659;28;20091;-68
2022/09/09 04:55:53;;;;;;;5.75;3.47;;;14.20;99.90;;;;;;5073328;28;20056;-68
2022/09/09 04:58:18;;;;;;;6.78;3.70;;;14.20;99.90;;;;;;5073288;28;20135;-68
2022/09/09 05:00:44;;;;;;;6.85;3.85;;;14.20;99.90;;;;;;5071779;28;20461;-68
2022/09/09 05:03:10;;;;;;;5.55;3.45;;;14.20;99.90;;;;;;5072922;28;20368;-69
2022/09/09 05:05:35;;;;;;;4.53;3.40;;;14.20;99.90;;;;;;5072768;28;20048;-68
2022/09/09 05:08:06;;;;;;;4.50;3.17;;;14.10;99.90;;;;;;5072751;28;20094;-68
2022/09/09 05:10:33;;;;;;;7.82;3.47;;;14.20;99.90;;;;;;5073093;28;20052;-68
2022/09/09 05:12:58;;;;;;;5.47;3.63;;;14.20;99.90;;;;;;5073237;28;20138;-68
2022/09/09 05:15:24;;;;;;;6.10;3.50;;;14.20;99.90;;;;;;5073182;28;20083;-68
2022/09/09 05:17:52;;;;;;;4.40;3.28;;;14.20;99.90;;;;;;5072885;28;20049;-67
2022/09/09 05:20:18;;;;;;;4.45;3.33;;;14.20;99.90;;;;;;5073122;28;20127;-67
2022/09/09 05:22:44;;;;;;;4.72;3.40;;;14.20;99.90;;;;;;5073117;28;20422;-67
2022/09/09 05:25:09;;;;;;;6.10;3.15;;;14.20;99.90;;;;;;5073113;28;20123;-68
2022/09/09 05:27:35;;;;;;;5.28;3.60;;;14.20;99.90;;;;;;5073025;28;20161;-67
2022/09/09 05:30:01;;;;;;;6.18;3.15;;;14.20;99.90;;;;;;5072358;28;20053;-68
2022/09/09 05:32:27;;;;;;;4.68;3.45;;;14.20;99.90;;;;;;5073469;28;20450;-67
2022/09/09 05:34:53;;;;;;;6.28;3.13;;;14.10;99.90;;;;;;5072964;28;20045;-68
2022/09/09 05:37:19;;;;;;;7.00;3.63;;;14.10;99.90;;;;;;5072971;28;20040;-68
2022/09/09 05:39:45;;;;;;;4.07;3.22;;;14.20;99.90;;;;;;5072970;28;20055;-68
2022/09/09 05:42:10;;;;;;;4.60;3.45;;;14.20;99.90;;;;;;5071714;28;20569;-68
2022/09/09 05:44:37;;;;;;;6.15;3.65;;;14.20;99.90;;;;;;5073224;28;20045;-68
2022/09/09 05:47:03;;;;;;;5.47;3.15;;;14.20;99.90;;;;;;5072868;28;20079;-67
2022/09/09 05:49:28;;;;;;;5.13;3.58;;;14.20;99.90;;;;;;5073312;28;20041;-68
2022/09/09 05:51:54;;;;;;;4.78;2.92;;;14.30;99.90;;;;;;5072108;28;20064;-68
2022/09/09 05:54:20;;;;;;;5.47;3.33;;;14.30;99.90;;;;;;5073572;28;20048;-68
2022/09/09 05:56:45;;;;;;;4.95;3.15;;;14.20;99.90;;;;;;5072792;28;20503;-68
2022/09/09 05:59:12;;;;;;;4.20;3.10;;;14.30;99.90;;;;;;5073589;28;20045;-68
2022/09/09 06:01:40;;;;;;;4.65;3.10;;;14.30;99.90;;;;;;5072895;28;20095;-68
2022/09/09 06:04:07;;;;;;;3.63;3.00;;;14.40;99.90;;;;;;5071979;28;20114;-68
2022/09/09 06:06:39;;;;;;;4.95;3.20;;;14.40;99.90;;;;;;5072628;28;20041;-68
2022/09/09 06:09:09;;;;;;;4.05;3.00;;;14.50;99.90;;;;;;5072701;28;20055;-68
2022/09/09 06:11:37;;;;;;;3.70;2.78;;;14.50;99.90;;;;;;5072753;28;20186;-67
2022/09/09 06:14:03;;;;;;;4.00;3.15;;;14.60;99.90;;;;;;5073481;28;20148;-67
2022/09/09 06:16:32;;;;;;;5.20;3.10;;;14.60;99.90;;;;;;5073039;28;20076;-67
2022/09/09 06:18:58;;;;;;;4.75;3.30;;;14.50;99.90;;;;;;5073485;28;20362;-68
2022/09/09 06:21:27;;;;;;;4.60;3.08;;;14.60;99.90;;;;;;5075676;28;20040;-68
2022/09/09 06:23:53;;;;;;;4.10;2.85;;;14.50;99.90;;;;;;5076176;28;20052;-68
2022/09/09 06:26:25;;;;;;;4.32;2.80;;;14.50;99.90;;;;;;5076039;28;20046;-68
2022/09/09 06:28:52;;;;;;;6.32;3.08;;;14.50;99.90;;;;;;5075974;28;20064;-68
2022/09/09 06:31:24;;;;;;;4.50;3.25;;;14.50;99.90;;;;;;5076022;28;20047;-68
2022/09/09 06:33:51;;;;;;;4.47;2.55;;;14.50;99.90;;;;;;5076269;28;20044;-68
2022/09/09 06:36:25;;;;;;;4.65;3.10;;;14.50;99.90;;;;;;5075964;28;20079;-68
2022/09/09 06:38:51;;;;;;;5.13;2.97;;;14.50;99.90;;;;;;5075913;28;20052;-68
2022/09/09 06:41:21;;;;;;;4.65;3.15;;;14.60;99.90;;;;;;5074630;28;20052;-68
2022/09/09 06:43:47;;;;;;;5.63;3.28;;;14.60;99.90;;;;;;5076161;28;20127;-68
2022/09/09 06:46:23;;;;;;;6.07;3.40;;;14.60;99.90;;;;;;5075722;28;20143;-68
2022/09/09 06:48:49;;;;;;;4.05;2.80;;;14.70;99.90;;;;;;5076581;28;20477;-68
2022/09/09 06:51:21;;;;;;;6.10;3.17;;;14.70;99.90;;;;;;5075690;28;20044;-68
2022/09/09 06:53:49;;;;;;;3.70;2.95;;;14.70;99.90;;;;;;5076490;28;20380;-68
2022/09/09 06:56:24;;;;;;;4.05;3.10;;;14.70;99.90;;;;;;5075455;28;20129;-68
2022/09/09 06:58:52;;;;;;;4.10;3.05;;;14.80;99.90;;;;;;5075961;28;20044;-68
2022/09/09 07:01:20;;;;;;;6.38;3.55;;;14.80;99.90;;;;;;5074991;28;20555;-68
2022/09/09 07:03:48;;;;;;;5.55;3.70;;;14.70;99.90;;;;;;5075107;28;20517;-68
2022/09/09 07:06:24;;;;;;;4.20;3.58;;;14.70;99.90;;;;;;5075430;28;20076;-68
2022/09/09 07:08:55;;;;;;;4.32;3.20;;;14.70;99.90;;;;;;5075695;28;20066;-68
2022/09/09 07:11:22;;;;;;;4.35;3.63;;;14.70;99.90;;;;;;5075258;28;20044;-67
2022/09/09 07:13:49;;;;;;;6.38;3.65;;;14.80;99.90;;;;;;5076017;28;20106;-68
2022/09/09 07:16:17;;;;;;;4.40;3.20;;;14.80;99.90;;;;;;5075702;28;20096;-67
2022/09/09 07:18:44;;;;;;;5.85;3.40;;;14.80;99.90;;;;;;5075099;28;20055;-68
2022/09/09 07:21:14;;;;;;;4.32;3.22;;;15.00;99.90;;;;;;5073730;28;20086;-68
2022/09/09 07:23:41;;;;;;;5.90;3.28;;;15.00;99.90;;;;;;5074435;28;20370;-68
2022/09/09 07:26:15;;;;;;;5.10;3.47;;;15.10;99.90;;;;;;5074944;28;20127;-68
2022/09/09 07:28:41;;;;;;;4.65;3.38;;;15.10;99.90;;;;;;5073946;28;20052;-68
2022/09/09 07:31:13;;;;;;;8.40;3.55;;;15.10;99.90;;;;;;5074625;28;20052;-68
2022/09/09 07:33:40;;;;;;;5.32;3.45;;;15.20;99.90;;;;;;5073548;28;20044;-68
2022/09/09 07:36:25;;;;;;;4.03;3.03;;;15.20;99.90;;;;;;5075121;28;20109;-67
2022/09/09 07:38:56;;;;;;;4.20;3.45;;;15.40;99.90;;;;;;5075341;28;20047;-68
2022/09/09 07:41:27;;;;;;;5.03;3.08;;;15.40;99.90;;;;;;5075179;28;20040;-68
2022/09/09 07:43:54;;;;;;;5.60;3.70;;;15.60;99.90;;;;;;5074680;28;20128;-68
2022/09/09 07:46:22;;;;;;;3.55;2.95;;;15.70;99.90;;;;;;5074558;28;20097;-68
2022/09/09 07:48:53;;;;;;;5.28;3.20;;;15.90;99.90;;;;;;5074546;28;20045;-68
2022/09/09 07:51:22;;;;;;;4.30;3.33;;;15.90;99.90;;;;;;5075053;28;20036;-68
2022/09/09 07:53:51;;;;;;;3.70;3.00;;;16.00;99.90;;;;;;5074248;28;20102;-68
2022/09/09 07:56:18;;;;;;;4.78;3.13;;;16.10;99.90;;;;;;5074287;28;20049;-69
2022/09/09 07:58:47;;;;;;;6.60;3.22;;;16.20;99.90;;;;;;5074114;28;20493;-67
2022/09/09 08:01:31;;;;;;;6.63;3.55;;;16.40;99.90;;;;;;5074247;28;20064;-68
2022/09/09 08:04:00;;;;;;;4.88;3.35;;;16.50;99.90;;;;;;5074335;28;20055;-68
2022/09/09 08:06:37;;;;;;;5.18;3.60;;;16.60;99.90;;;;;;5074480;28;20389;-68
2022/09/09 08:09:03;;;;;;;6.75;3.20;;;16.60;99.90;;;;;;5074143;28;20052;-68
2022/09/09 08:11:30;;;;;;;5.88;3.50;;;16.70;99.90;;;;;;5074085;28;20079;-69
2022/09/09 08:13:56;;;;;;;4.90;3.83;;;16.80;99.90;;;;;;5074093;28;20049;-69
2022/09/09 08:16:25;;;;;;;7.50;3.90;;;16.90;99.90;;;;;;5057180;28;20410;-69
2022/09/09 08:18:52;;;;;;;4.68;3.60;;;16.90;99.90;;;;;;5073987;28;20512;-69
2022/09/09 08:21:21;;;;;;;4.10;3.70;;;17.00;99.90;;;;;;5073865;28;20051;-69
2022/09/09 08:23:47;;;;;;;4.47;3.33;;;17.10;99.90;;;;;;5073917;28;20049;-68
2022/09/09 08:26:24;;;;;;;5.15;3.75;;;17.10;99.90;;;;;;5073715;28;20040;-69
2022/09/09 08:28:51;;;;;;;5.20;3.40;;;17.20;99.90;;;;;;5073827;28;20095;-69
2022/09/09 08:31:35;;;;;;;4.72;3.88;;;17.30;99.90;;;;;;5073797;28;20051;-68
2022/09/09 08:34:03;;;;;;;5.63;3.88;;;17.40;99.90;;;;;;5073717;28;20079;-68
2022/09/09 08:36:33;;;;;;;4.63;3.50;;;17.40;99.90;;;;;;5072672;28;20079;-69
2022/09/09 08:38:59;;;;;;;5.20;3.80;;;17.60;99.90;;;;;;5073663;28;20054;-69
2022/09/09 08:41:44;;;;;;;4.78;3.60;;;17.60;99.90;;;;;;5074325;28;20190;-68
2022/09/09 08:44:15;;;;;;;7.53;3.92;;;17.60;99.90;;;;;;5072543;28;20186;-69
2022/09/09 08:46:57;;;;;;;4.72;2.90;;;17.70;99.90;;;;;;5074108;28;20051;-69
2022/09/09 08:49:25;;;;;;;4.40;3.13;;;17.80;99.90;;;;;;5073633;28;20049;-68
2022/09/09 08:51:55;;;;;;;6.03;3.42;;;17.70;99.90;;;;;;5073471;28;20047;-69
2022/09/09 08:54:21;;;;;;;3.75;2.75;;;17.70;99.90;;;;;;5073948;28;20072;-69
2022/09/09 08:56:48;;;;;;;5.53;2.97;;;17.80;99.90;;;;;;5073584;28;20048;-68
2022/09/09 08:59:19;;;;;;;5.10;2.72;;;17.70;99.90;;;;;;5073609;28;20049;-68
2022/09/09 09:01:55;;;;;;;3.80;2.15;;;17.60;99.90;;;;;;5073393;28;20063;-69
2022/09/09 09:04:51;;;;;;;4.80;2.75;;;17.50;99.90;;;;;;5073372;28;20044;-69
2022/09/09 09:07:35;;;;;;;4.03;2.38;;;17.50;99.90;;;;;;5073275;28;20048;-69
2022/09/09 09:10:14;;;;;;;6.45;2.42;;;17.50;99.90;;;;;;5072537;28;20040;-69
2022/09/09 09:12:43;;;;;;;4.70;2.47;;;17.40;99.90;;;;;;5073250;28;20470;-69
2022/09/09 09:15:25;;;;;;;5.47;2.67;;;17.40;99.90;;;;;;5071924;28;20045;-70
2022/09/09 09:17:51;;;;;;;4.75;2.30;;;17.50;99.90;;;;;;5073506;28;20045;-69
2022/09/09 09:20:26;;;;;;;5.57;2.70;;;17.50;99.90;;;;;;5073122;28;20470;-71
2022/09/09 09:22:59;;;;;;;4.68;1.77;;;17.80;99.90;;;;;;5073560;28;20453;-70
2022/09/09 09:25:34;;;;;;;3.85;2.00;;;18.00;99.90;;;;;;5073337;28;20067;-68
2022/09/09 09:28:05;;;;;;;4.20;2.00;;;18.10;99.90;;;;;;5073092;28;20048;-68
2022/09/09 09:30:47;;;;;;;4.78;1.80;;;18.10;99.90;;;;;;5073666;28;20100;-69
2022/09/09 09:33:35;;;;;;;7.18;2.03;;;18.10;99.90;;;;;;5073059;28;20051;-69
2022/09/09 09:36:02;;;;;;;3.42;2.10;;;18.00;99.90;;;;;;5066772;28;20067;-69
2022/09/09 09:38:28;;;;;;;4.95;2.40;;;18.00;99.90;;;;;;5072996;28;20089;-69
2022/09/09 09:40:59;;;;;;;3.58;1.95;;;18.10;99.90;;;;;;5073065;28;20080;-68
2022/09/09 09:43:36;;;;;;;4.25;1.80;;;18.20;99.90;;;;;;5072024;28;20049;-69
2022/09/09 09:46:17;;;;;;;6.15;2.03;;;18.20;99.90;;;;;;5073791;28;20118;-68
2022/09/09 09:48:43;;;;;;;3.92;1.75;;;18.20;99.90;;;;;;5072931;28;20040;-69
2022/09/09 09:51:16;;;;;;;3.47;1.67;;;18.20;99.90;;;;;;5073379;28;20045;-69
2022/09/09 09:53:43;;;;;;;5.07;1.90;;;18.10;99.90;;;;;;5073498;28;20049;-69
2022/09/09 09:56:11;;;;;;;3.92;1.77;;;18.20;99.90;;;;;;5075386;28;20052;-68
2022/09/09 09:58:57;;;;;;;5.72;2.45;;;18.50;99.90;;;;;;5076215;28;20048;-69
2022/09/09 10:01:33;;;;;;;5.32;1.63;;;18.90;99.90;;;;;;5076451;28;20539;-69
2022/09/09 10:04:03;;;;;;;;;;;19.00;99.90;;;;;;5077326;28;20040;-69
2022/09/09 10:06:39;;;;;;;5.28;1.70;;;19.10;99.90;;;;;;5076190;28;20273;-69
2022/09/09 10:09:20;;;;;;;3.90;1.48;;;19.20;99.90;;;;;;5076166;28;20493;-68
2022/09/09 10:12:04;;;;;;;4.50;1.50;;;19.30;99.90;;;;;;5077236;28;20124;-70
2022/09/09 10:14:51;;;;;;;3.17;1.42;;;19.20;99.90;;;;;;5076471;28;20048;-69
2022/09/09 10:17:29;;;;;;;3.92;1.52;;;19.10;99.90;;;;;;5076134;28;20439;-69
2022/09/09 10:20:19;;;;;;;4.75;1.50;;;19.00;99.90;;;;;;5075116;28;20556;-70
2022/09/09 10:22:50;;;;;;;5.85;1.55;;;19.10;99.90;;;;;;5068440;28;20159;-69
2022/09/09 10:25:45;;;;;;;3.65;1.30;;;19.10;99.90;;;;;;5076744;28;20040;-68
2022/09/09 10:28:33;;;;;;;3.03;1.48;;;19.10;99.90;;;;;;5072573;28;20409;-69
2022/09/09 10:31:30;;;;;;;5.03;1.70;;;19.20;99.90;;;;;;5074897;28;20047;-69
2022/09/09 10:34:24;;;;;;;4.43;1.48;;;19.20;99.90;;;;;;5076106;28;20154;-70
2022/09/09 10:36:50;;;;;;;5.38;1.30;;;19.10;99.90;;;;;;5054916;28;20158;-68
2022/09/09 10:39:33;;;;;;;3.30;1.35;;;19.00;99.90;;;;;;5076468;28;20048;-69
2022/09/09 10:42:09;;;;;;;2.90;1.27;;;19.00;99.90;;;;;;5076155;28;20047;-70
2022/09/09 10:44:38;;;;;;;3.53;1.40;;;19.10;99.90;;;;;;5075863;28;20095;-69
2022/09/09 10:47:23;;;;;;;4.07;1.20;;;19.30;99.90;;;;;;5076289;28;20108;-69
2022/09/09 10:50:27;;;;;;;3.55;1.40;;;19.40;99.90;;;;;;5058355;28;20063;-69
2022/09/09 10:53:21;;;;;;;3.50;1.30;;;19.60;99.90;;;;;;5063755;28;20434;-70
2022/09/09 10:56:09;;;;;;;2.83;1.10;;;19.70;99.90;;;;;;5054689;28;20053;-69
2022/09/09 10:58:44;;;;;;;4.07;1.30;;;19.70;99.90;;;;;;5075721;28;20086;-69
2022/09/09 11:01:21;;;;;;;3.45;1.20;;;19.50;99.90;;;;;;5075336;28;20048;-68
2022/09/09 11:03:53;;;;;;;3.92;1.17;;;19.40;99.90;;;;;;5075526;28;20063;-69
2022/09/09 11:06:24;;;;;;;3.40;1.20;;;19.40;99.90;;;;;;5074840;28;20121;-70
2022/09/09 11:08:52;;;;;;;2.40;0.90;;;19.30;99.90;;;;;;5075399;28;20072;-68
2022/09/09 11:11:29;;;;;;;4.05;1.42;;;19.30;99.90;;;;;;5075390;28;20036;-69
2022/09/09 11:14:13;;;;;;;4.72;1.38;;;19.40;99.90;;;;;;5075856;28;20045;-69
2022/09/09 11:16:52;;;;;;;2.97;1.10;;;19.70;99.90;;;;;;5075182;28;20105;-70
2022/09/09 11:19:42;;;;;;;2.10;0.98;;;19.90;99.90;;;;;;5075305;28;20094;-64
2022/09/09 11:22:17;;;;;;;3.63;1.15;;;20.10;99.90;;;;;;5074892;28;20462;-64
2022/09/09 11:25:12;;;;;;;3.13;1.00;;;20.20;99.90;;;;;;5075160;28;20132;-65
2022/09/09 11:27:59;;;;;;;3.88;1.23;;;20.30;99.90;;;;;;5055882;28;20048;-67
2022/09/09 11:31:02;;;;;;;2.78;1.30;;;20.30;99.90;;;;;;5075871;28;20094;-64
2022/09/09 11:33:31;;;;;;;3.17;1.27;;;20.10;99.90;;;;;;5074648;28;20365;-64
2022/09/09 11:36:34;;;;;;;2.90;1.00;;;20.30;99.90;;;;;;5074790;28;20397;-65
2022/09/09 11:39:26;;;;;;;3.38;1.00;;;20.40;99.90;;;;;;5074582;28;20053;-64
2022/09/09 11:41:51;;;;;;;5.18;1.30;;;20.40;99.90;;;;;;5054754;28;20416;-64
2022/09/09 11:44:26;;;;;;;4.50;1.00;;;20.40;99.90;;;;;;5074092;28;20044;-64
2022/09/09 11:46:52;;;;;;;3.50;1.13;;;20.50;99.90;;;;;;5075526;28;20419;-64
2022/09/09 11:49:38;;;;;;;2.90;1.10;;;20.70;99.90;;;;;;5074589;28;20078;-65
2022/09/09 11:52:14;;;;;;;3.53;1.00;;;20.70;99.90;;;;;;5073550;28;20056;-65
2022/09/09 11:54:49;;;;;;;;;;;20.80;99.90;;;;;;5075046;28;20044;-64
2022/09/09 11:57:43;;;;;;;4.43;0.82;;;20.80;99.90;;;;;;5074918;28;20035;-64
2022/09/09 12:00:37;;;;;;;3.13;0.98;;;20.50;99.90;;;;;;5072731;28;20058;-64
2022/09/09 12:03:04;;;;;;;2.53;1.08;;;20.30;99.90;;;;;;5074234;28;20100;-64
2022/09/09 12:05:40;;;;;;;3.08;1.05;;;20.30;99.90;;;;;;5073024;28;20098;-63
2022/09/09 12:08:09;;;;;;;2.92;1.02;;;20.40;99.90;;;;;;5074089;28;20220;-65
2022/09/09 12:10:39;;;;;;;2.20;1.02;;;20.40;99.90;;;;;;5074822;28;20040;-64
2022/09/09 12:13:20;;;;;;;2.67;1.00;;;20.30;99.90;;;;;;5074181;28;20128;-64
2022/09/09 12:15:53;;;;;;;3.72;1.20;;;20.20;99.90;;;;;;5074570;28;20048;-64
2022/09/09 12:18:37;;;;;;;2.20;0.80;;;20.10;99.90;;;;;;5073286;28;20044;-63
2022/09/09 12:21:21;;;;;;;2.53;0.98;;;20.10;99.90;;;;;;5073582;28;20509;-64
2022/09/09 12:23:57;;;;;;;2.30;0.80;;;20.10;99.90;;;;;;5073804;28;20146;-64
2022/09/09 12:27:09;;;;;;;3.60;1.00;;;20.30;99.90;;;;;;5073834;28;20080;-64
2022/09/09 12:29:41;;;;;;;2.47;0.90;;;20.50;99.90;;;;;;5071828;28;20095;-63
2022/09/09 12:32:10;;;;;;;2.85;1.08;;;20.50;99.90;;;;;;5073727;28;20059;-64
2022/09/09 12:34:52;;;;;;;2.53;0.70;;;20.50;99.90;;;;;;5073690;28;20044;-64
2022/09/09 12:37:53;;;;;;;3.58;0.80;;;20.50;99.90;;;;;;5074012;28;20055;-64
2022/09/09 12:40:35;;;;;;;2.83;0.80;;;20.40;99.90;;;;;;5073321;28;20082;-64
2022/09/09 12:43:21;;;;;;;3.70;1.10;;;20.30;99.90;;;;;;5073557;28;20076;-64
2022/09/09 12:45:50;;;;;;;3.00;0.90;;;20.10;99.90;;;;;;5072984;28;20068;-64
2022/09/09 12:48:19;;;;;;;5.60;1.40;;;19.90;99.90;;;;;;5073345;28;20063;-64
2022/09/09 12:50:52;;;;;;;4.55;1.40;;;19.90;99.90;;;;;;5073362;28;20044;-64
2022/09/09 12:53:34;;;;;;;3.33;1.00;;;20.00;99.90;;;;;;5074262;28;20072;-64
2022/09/09 12:56:02;;;;;;;2.72;0.90;;;19.90;99.90;;;;;;5073674;28;20484;-64
2022/09/09 12:58:32;;;;;;;3.25;1.00;;;19.90;99.90;;;;;;5073078;28;20430;-65
2022/09/09 13:00:59;;;;;;;3.97;0.90;;;19.90;99.90;;;;;;5072853;28;20067;-65
2022/09/09 13:03:26;;;;;;;2.95;1.00;;;20.10;99.90;;;;;;5073330;28;20060;-65
2022/09/09 13:05:53;;;;;;;3.40;1.10;;;20.30;99.90;;;;;;5073319;28;20048;-64
2022/09/09 13:08:20;;;;;;;2.95;1.30;;;20.50;99.90;;;;;;5073167;28;20036;-64
2022/09/09 13:11:02;;;;;;;3.00;1.17;;;20.50;99.90;;;;;;5073271;28;20185;-64
2022/09/09 13:13:36;;;;;;;3.55;0.98;;;20.40;99.90;;;;;;5073751;28;20044;-64
2022/09/09 13:16:04;;;;;;;2.15;1.00;;;20.30;99.90;;;;;;5073094;28;20057;-64
2022/09/09 13:18:34;;;;;;;3.30;0.90;;;20.20;99.90;;;;;;5072714;28;20490;-64